NKS1250 KFLL-KPIT
Flight info
| Callsign | NKS1250 |
|---|---|
| Flight time | 2h 6m |
| Altitude | 37000 |
| Route | AGERS1 DUCEN Q87 VIYAP Q69 RICCS LEJOY DEMME5 |
| Aircraft | A320/M-SDE3FGHIRWY/LB1 |
Departure
| Time | 2026-05-03 21:48 |
|---|---|
| Airport | Fort Lauderdale Hollywood International Airport (KFLL) |
Arrival
| Time | 2026-05-03 23:54 |
|---|---|
| Airport | Pittsburgh International Airport (KPIT) |
| Time | Latitude | Longitude | Altitude | Speed | Heading |
|---|---|---|---|---|---|
| 2026-05-03 20:34 | 26.06884 | -80.14431 | 16 ft | 0 kts | 0° |
| 2026-05-03 20:34 | 26.06880 | -80.14432 | 16 ft | 0 kts | 0° |
| 2026-05-03 21:07 | 26.06873 | -80.14432 | 16 ft | 1 kts | 0° |
| 2026-05-03 21:07 | 26.06869 | -80.14432 | 16 ft | 1 kts | 0° |
| 2026-05-03 21:08 | 26.06860 | -80.14432 | 16 ft | 2 kts | 0° |
| 2026-05-03 21:08 | 26.06843 | -80.14432 | 17 ft | 2 kts | 0° |
| 2026-05-03 21:08 | 26.06826 | -80.14432 | 17 ft | 2 kts | 0° |
| 2026-05-03 21:09 | 26.06819 | -80.14432 | 16 ft | 0 kts | 0° |
| 2026-05-03 21:09 | 26.06823 | -80.14435 | 16 ft | 1 kts | 329° |
| 2026-05-03 21:09 | 26.06824 | -80.14445 | 17 ft | 2 kts | 275° |
| 2026-05-03 21:09 | 26.06819 | -80.14461 | 16 ft | 2 kts | 238° |
| 2026-05-03 21:10 | 26.06818 | -80.14462 | 16 ft | 0 kts | 236° |
| 2026-05-03 21:12 | 26.06817 | -80.14473 | 16 ft | 4 kts | 262° |
| 2026-05-03 21:12 | 26.06814 | -80.14526 | 16 ft | 9 kts | 262° |
| 2026-05-03 21:12 | 26.06778 | -80.14595 | 16 ft | 13 kts | 248° |
| 2026-05-03 21:12 | 26.06768 | -80.14692 | 15 ft | 13 kts | 268° |
| 2026-05-03 21:13 | 26.06767 | -80.14796 | 15 ft | 15 kts | 270° |
| 2026-05-03 21:13 | 26.06768 | -80.14917 | 15 ft | 17 kts | 270° |
| 2026-05-03 21:13 | 26.06768 | -80.15058 | 16 ft | 19 kts | 270° |
| 2026-05-03 21:13 | 26.06859 | -80.15131 | 16 ft | 19 kts | 2° |
| 2026-05-03 21:14 | 26.07000 | -80.15127 | 16 ft | 22 kts | 360° |
| 2026-05-03 21:14 | 26.07154 | -80.15128 | 16 ft | 22 kts | 1° |
| 2026-05-03 21:14 | 26.07299 | -80.15126 | 16 ft | 17 kts | 0° |
| 2026-05-03 21:14 | 26.07365 | -80.15126 | 16 ft | 6 kts | 360° |
| 2026-05-03 21:15 | 26.07368 | -80.15126 | 16 ft | 0 kts | 360° |
| 2026-05-03 21:17 | 26.07384 | -80.15126 | 17 ft | 5 kts | 360° |
| 2026-05-03 21:17 | 26.07455 | -80.15130 | 17 ft | 15 kts | 347° |
| 2026-05-03 21:18 | 26.07490 | -80.15223 | 16 ft | 15 kts | 270° |
| 2026-05-03 21:18 | 26.07491 | -80.15347 | 16 ft | 18 kts | 272° |
| 2026-05-03 21:18 | 26.07506 | -80.15501 | 16 ft | 20 kts | 265° |
| 2026-05-03 21:18 | 26.07491 | -80.15659 | 16 ft | 21 kts | 270° |
| 2026-05-03 21:19 | 26.07493 | -80.15822 | 16 ft | 21 kts | 269° |
| 2026-05-03 21:19 | 26.07494 | -80.15989 | 16 ft | 22 kts | 270° |
| 2026-05-03 21:19 | 26.07496 | -80.16159 | 16 ft | 22 kts | 270° |
| 2026-05-03 21:19 | 26.07495 | -80.16313 | 16 ft | 16 kts | 270° |
| 2026-05-03 21:20 | 26.07495 | -80.16344 | 16 ft | 0 kts | 270° |
| 2026-05-03 21:23 | 26.07495 | -80.16347 | 16 ft | 2 kts | 270° |
| 2026-05-03 21:24 | 26.07495 | -80.16386 | 16 ft | 7 kts | 270° |
| 2026-05-03 21:24 | 26.07496 | -80.16416 | 16 ft | 0 kts | 270° |
| 2026-05-03 21:30 | 26.07496 | -80.16423 | 16 ft | 2 kts | 271° |
| 2026-05-03 21:30 | 26.07496 | -80.16426 | 16 ft | 0 kts | 271° |
| 2026-05-03 21:30 | 26.07496 | -80.16432 | 16 ft | 3 kts | 271° |
| 2026-05-03 21:31 | 26.07496 | -80.16457 | 16 ft | 3 kts | 271° |
| 2026-05-03 21:31 | 26.07496 | -80.16459 | 16 ft | 0 kts | 271° |
| 2026-05-03 21:31 | 26.07496 | -80.16460 | 16 ft | 0 kts | 271° |
| 2026-05-03 21:31 | 26.07496 | -80.16465 | 16 ft | 0 kts | 271° |
| 2026-05-03 21:32 | 26.07497 | -80.16468 | 16 ft | 1 kts | 271° |
| 2026-05-03 21:32 | 26.07497 | -80.16492 | 16 ft | 5 kts | 271° |
| 2026-05-03 21:32 | 26.07497 | -80.16524 | 16 ft | 5 kts | 270° |
| 2026-05-03 21:32 | 26.07497 | -80.16527 | 16 ft | 0 kts | 270° |
| 2026-05-03 21:33 | 26.07497 | -80.16530 | 16 ft | 1 kts | 270° |
| 2026-05-03 21:34 | 26.07498 | -80.16554 | 16 ft | 5 kts | 271° |
| 2026-05-03 21:34 | 26.07498 | -80.16572 | 16 ft | 0 kts | 271° |
| 2026-05-03 21:37 | 26.07498 | -80.16584 | 16 ft | 2 kts | 271° |
| 2026-05-03 21:38 | 26.07499 | -80.16600 | 16 ft | 0 kts | 273° |
| 2026-05-03 21:42 | 26.07499 | -80.16605 | 16 ft | 2 kts | 278° |
| 2026-05-03 21:42 | 26.07518 | -80.16634 | 17 ft | 7 kts | 322° |
| 2026-05-03 21:43 | 26.07544 | -80.16643 | 16 ft | 0 kts | 354° |
| 2026-05-03 21:45 | 26.07547 | -80.16643 | 16 ft | 1 kts | 355° |
| 2026-05-03 21:45 | 26.07565 | -80.16644 | 16 ft | 3 kts | 358° |
| 2026-05-03 21:45 | 26.07585 | -80.16645 | 18 ft | 2 kts | 359° |
| 2026-05-03 21:46 | 26.07622 | -80.16645 | 17 ft | 7 kts | 0° |
| 2026-05-03 21:46 | 26.07677 | -80.16636 | 18 ft | 9 kts | 27° |
| 2026-05-03 21:46 | 26.07696 | -80.16580 | 18 ft | 0 kts | 89° |
| 2026-05-03 21:47 | 26.07697 | -80.16541 | 18 ft | 23 kts | 90° |
| 2026-05-03 21:47 | 26.07694 | -80.16082 | 19 ft | 92 kts | 90° |
| 2026-05-03 21:47 | 26.07688 | -80.15171 | 16 ft | 141 kts | 90° |
| 2026-05-03 21:48 | 26.07691 | -80.13961 | 301 ft | 157 kts | 86° |
| 2026-05-03 21:48 | 26.07707 | -80.12769 | 881 ft | 158 kts | 85° |
| 2026-05-03 21:48 | 26.07751 | -80.11521 | 1292 ft | 172 kts | 85° |
| 2026-05-03 21:48 | 26.07812 | -80.10078 | 1498 ft | 197 kts | 82° |
| 2026-05-03 21:49 | 26.08279 | -80.08571 | 1710 ft | 219 kts | 58° |
| 2026-05-03 21:49 | 26.09319 | -80.07229 | 2033 ft | 241 kts | 34° |
| 2026-05-03 21:49 | 26.10882 | -80.06417 | 2515 ft | 257 kts | 18° |
| 2026-05-03 21:49 | 26.12606 | -80.05735 | 3305 ft | 266 kts | 18° |
| 2026-05-03 21:50 | 26.14378 | -80.05047 | 3812 ft | 272 kts | 12° |
| 2026-05-03 21:50 | 26.16244 | -80.04942 | 3973 ft | 268 kts | 346° |
| 2026-05-03 21:50 | 26.18015 | -80.05547 | 4009 ft | 267 kts | 338° |
| 2026-05-03 21:50 | 26.19770 | -80.06233 | 4014 ft | 267 kts | 336° |
| 2026-05-03 21:51 | 26.21359 | -80.07202 | 4018 ft | 263 kts | 320° |
| 2026-05-03 21:51 | 26.22639 | -80.08631 | 4019 ft | 261 kts | 304° |
| 2026-05-03 21:51 | 26.23491 | -80.10400 | 4017 ft | 259 kts | 291° |
| 2026-05-03 21:51 | 26.24158 | -80.12261 | 4014 ft | 259 kts | 291° |
| 2026-05-03 21:52 | 26.24859 | -80.14114 | 4012 ft | 261 kts | 297° |
| 2026-05-03 21:52 | 26.25931 | -80.15749 | 4018 ft | 263 kts | 314° |
| 2026-05-03 21:52 | 26.27399 | -80.16970 | 4087 ft | 268 kts | 331° |
| 2026-05-03 21:52 | 26.29094 | -80.17895 | 4949 ft | 272 kts | 332° |
| 2026-05-03 21:53 | 26.30789 | -80.18844 | 5936 ft | 275 kts | 330° |
| 2026-05-03 21:53 | 26.32477 | -80.19806 | 6895 ft | 277 kts | 329° |
| 2026-05-03 21:53 | 26.34196 | -80.20790 | 7815 ft | 280 kts | 329° |
| 2026-05-03 21:53 | 26.35936 | -80.21785 | 8758 ft | 282 kts | 329° |
| 2026-05-03 21:54 | 26.37761 | -80.22648 | 9649 ft | 290 kts | 340° |
| 2026-05-03 21:54 | 26.39790 | -80.23026 | 10334 ft | 305 kts | 349° |
| 2026-05-03 21:54 | 26.41989 | -80.23267 | 10606 ft | 329 kts | 350° |
| 2026-05-03 21:54 | 26.44333 | -80.23510 | 11052 ft | 344 kts | 351° |
| 2026-05-03 21:55 | 26.46733 | -80.23749 | 11770 ft | 348 kts | 351° |
| 2026-05-03 21:55 | 26.49160 | -80.23985 | 12404 ft | 352 kts | 350° |
| 2026-05-03 21:55 | 26.51620 | -80.24223 | 12884 ft | 356 kts | 350° |
| 2026-05-03 21:55 | 26.54059 | -80.24466 | 13023 ft | 357 kts | 350° |
| 2026-05-03 21:56 | 26.56526 | -80.24719 | 13030 ft | 356 kts | 349° |
| 2026-05-03 21:56 | 26.58982 | -80.25050 | 13033 ft | 355 kts | 347° |
| 2026-05-03 21:56 | 26.61418 | -80.25452 | 13033 ft | 354 kts | 346° |
| 2026-05-03 21:56 | 26.63857 | -80.25886 | 13144 ft | 357 kts | 346° |
| 2026-05-03 21:57 | 26.66312 | -80.26327 | 13847 ft | 358 kts | 346° |
| 2026-05-03 21:57 | 26.68782 | -80.26765 | 14426 ft | 361 kts | 346° |
| 2026-05-03 21:57 | 26.71235 | -80.27350 | 14972 ft | 360 kts | 336° |
| 2026-05-03 21:57 | 26.73586 | -80.28315 | 15493 ft | 361 kts | 333° |
| 2026-05-03 21:58 | 26.75942 | -80.29307 | 16053 ft | 364 kts | 333° |
| 2026-05-03 21:58 | 26.78325 | -80.30306 | 16600 ft | 367 kts | 333° |
| 2026-05-03 21:58 | 26.80698 | -80.31298 | 17140 ft | 370 kts | 333° |
| 2026-05-03 21:58 | 26.83122 | -80.32311 | 17690 ft | 374 kts | 333° |
| 2026-05-03 21:59 | 26.85568 | -80.33332 | 18260 ft | 377 kts | 333° |
| 2026-05-03 21:59 | 26.88034 | -80.34358 | 18749 ft | 380 kts | 333° |
| 2026-05-03 21:59 | 26.90520 | -80.35395 | 19221 ft | 383 kts | 332° |
| 2026-05-03 21:59 | 26.93024 | -80.36445 | 19697 ft | 386 kts | 332° |
| 2026-05-03 22:00 | 26.95552 | -80.37500 | 20172 ft | 390 kts | 332° |
| 2026-05-03 22:00 | 26.98109 | -80.38542 | 20632 ft | 393 kts | 332° |
| 2026-05-03 22:00 | 27.00698 | -80.39580 | 21081 ft | 397 kts | 332° |
| 2026-05-03 22:00 | 27.03306 | -80.40621 | 21525 ft | 400 kts | 332° |
| 2026-05-03 22:01 | 27.05937 | -80.41674 | 22005 ft | 403 kts | 332° |
| 2026-05-03 22:01 | 27.08552 | -80.42725 | 22468 ft | 406 kts | 332° |
| 2026-05-03 22:01 | 27.11213 | -80.43821 | 22913 ft | 409 kts | 331° |
| 2026-05-03 22:01 | 27.13874 | -80.44973 | 23376 ft | 411 kts | 330° |
| 2026-05-03 22:02 | 27.16546 | -80.46165 | 23826 ft | 414 kts | 329° |
| 2026-05-03 22:02 | 27.19221 | -80.47372 | 24240 ft | 416 kts | 329° |
| 2026-05-03 22:02 | 27.21913 | -80.48586 | 24623 ft | 418 kts | 329° |
| 2026-05-03 22:02 | 27.24613 | -80.49796 | 24992 ft | 420 kts | 329° |
| 2026-05-03 22:03 | 27.27342 | -80.51011 | 25357 ft | 423 kts | 329° |
| 2026-05-03 22:03 | 27.30089 | -80.52227 | 25724 ft | 425 kts | 329° |
| 2026-05-03 22:03 | 27.32813 | -80.53430 | 26084 ft | 427 kts | 329° |
| 2026-05-03 22:03 | 27.35586 | -80.54656 | 26448 ft | 430 kts | 329° |
| 2026-05-03 22:04 | 27.38389 | -80.55871 | 26803 ft | 434 kts | 330° |
| 2026-05-03 22:04 | 27.41239 | -80.57035 | 27167 ft | 437 kts | 331° |
| 2026-05-03 22:04 | 27.44121 | -80.58166 | 27529 ft | 440 kts | 332° |
| 2026-05-03 22:04 | 27.47027 | -80.59286 | 27894 ft | 443 kts | 332° |
| 2026-05-03 22:05 | 27.49952 | -80.60413 | 28250 ft | 445 kts | 332° |
| 2026-05-03 22:05 | 27.52885 | -80.61554 | 28613 ft | 447 kts | 332° |
| 2026-05-03 22:05 | 27.55831 | -80.62717 | 28974 ft | 449 kts | 331° |
| 2026-05-03 22:05 | 27.58785 | -80.63896 | 29331 ft | 452 kts | 331° |
| 2026-05-03 22:06 | 27.61756 | -80.65089 | 29677 ft | 454 kts | 331° |
| 2026-05-03 22:06 | 27.64698 | -80.66270 | 30014 ft | 457 kts | 331° |
| 2026-05-03 22:06 | 27.67701 | -80.67474 | 30317 ft | 459 kts | 331° |
| 2026-05-03 22:06 | 27.70713 | -80.68679 | 30614 ft | 461 kts | 331° |
| 2026-05-03 22:07 | 27.73754 | -80.69893 | 30919 ft | 463 kts | 331° |
| 2026-05-03 22:07 | 27.76790 | -80.71103 | 31321 ft | 463 kts | 330° |
| 2026-05-03 22:07 | 27.79822 | -80.72311 | 31750 ft | 461 kts | 330° |
| 2026-05-03 22:07 | 27.82844 | -80.73517 | 32191 ft | 460 kts | 329° |
| 2026-05-03 22:08 | 27.85854 | -80.74716 | 32644 ft | 458 kts | 329° |
| 2026-05-03 22:08 | 27.88812 | -80.75897 | 33098 ft | 456 kts | 329° |
| 2026-05-03 22:08 | 27.91797 | -80.77092 | 33572 ft | 454 kts | 328° |
| 2026-05-03 22:08 | 27.94764 | -80.78283 | 34037 ft | 452 kts | 328° |
| 2026-05-03 22:09 | 27.97717 | -80.79470 | 34443 ft | 450 kts | 327° |
| 2026-05-03 22:09 | 28.00667 | -80.80656 | 34807 ft | 449 kts | 327° |
| 2026-05-03 22:09 | 28.03605 | -80.81840 | 35148 ft | 448 kts | 327° |
| 2026-05-03 22:10 | 28.09474 | -80.84203 | 35902 ft | 446 kts | 327° |
| 2026-05-03 22:10 | 28.12395 | -80.85376 | 36245 ft | 446 kts | 327° |
| 2026-05-03 22:10 | 28.15315 | -80.86551 | 36565 ft | 445 kts | 327° |
| 2026-05-03 22:10 | 28.18189 | -80.87713 | 36863 ft | 445 kts | 327° |
| 2026-05-03 22:11 | 28.21104 | -80.88894 | 37052 ft | 445 kts | 327° |
| 2026-05-03 22:11 | 28.26955 | -80.91262 | 37099 ft | 447 kts | 327° |
| 2026-05-03 22:12 | 28.32818 | -80.93624 | 37095 ft | 447 kts | 327° |
| 2026-05-03 22:12 | 28.38686 | -80.95987 | 37096 ft | 447 kts | 327° |
| 2026-05-03 22:13 | 28.44549 | -80.98360 | 37095 ft | 448 kts | 326° |
| 2026-05-03 22:13 | 28.50378 | -81.00735 | 37099 ft | 448 kts | 326° |
| 2026-05-03 22:14 | 28.56255 | -81.03124 | 37101 ft | 448 kts | 327° |
| 2026-05-03 22:14 | 28.62133 | -81.05506 | 37104 ft | 448 kts | 327° |
| 2026-05-03 22:15 | 28.68006 | -81.07895 | 37121 ft | 449 kts | 326° |
| 2026-05-03 22:15 | 28.73877 | -81.10280 | 37082 ft | 447 kts | 326° |
| 2026-05-03 22:16 | 28.79734 | -81.12678 | 37082 ft | 448 kts | 326° |
| 2026-05-03 22:16 | 28.85566 | -81.15066 | 37105 ft | 449 kts | 326° |
| 2026-05-03 22:17 | 28.91449 | -81.17466 | 37122 ft | 450 kts | 326° |
| 2026-05-03 22:17 | 28.97342 | -81.19878 | 37152 ft | 450 kts | 326° |
| 2026-05-03 22:18 | 29.03234 | -81.22291 | 37126 ft | 450 kts | 326° |
| 2026-05-03 22:18 | 29.09125 | -81.24708 | 37128 ft | 450 kts | 326° |
| 2026-05-03 22:19 | 29.15018 | -81.27131 | 37130 ft | 450 kts | 326° |
| 2026-05-03 22:19 | 29.19919 | -81.29146 | 37148 ft | 451 kts | 326° |
| 2026-05-03 22:20 | 29.26825 | -81.31883 | 37172 ft | 461 kts | 332° |
| 2026-05-03 22:20 | 29.30045 | -81.32485 | 37107 ft | 478 kts | 343° |
| 2026-05-03 22:20 | 29.33384 | -81.32682 | 37107 ft | 481 kts | 344° |
| 2026-05-03 22:21 | 29.40076 | -81.33055 | 37109 ft | 482 kts | 344° |
| 2026-05-03 22:21 | 29.46767 | -81.33443 | 37111 ft | 483 kts | 344° |
| 2026-05-03 22:22 | 29.52358 | -81.33777 | 37115 ft | 483 kts | 344° |
| 2026-05-03 22:22 | 29.59074 | -81.34174 | 37140 ft | 483 kts | 344° |
| 2026-05-03 22:23 | 29.65781 | -81.34566 | 37136 ft | 483 kts | 344° |
| 2026-05-03 22:23 | 29.72492 | -81.34964 | 37142 ft | 483 kts | 344° |
| 2026-05-03 22:24 | 29.79164 | -81.35357 | 37145 ft | 484 kts | 344° |
| 2026-05-03 22:24 | 29.85890 | -81.35754 | 37153 ft | 484 kts | 344° |
| 2026-05-03 22:25 | 29.92608 | -81.36154 | 37144 ft | 483 kts | 344° |
| 2026-05-03 22:25 | 29.99323 | -81.36554 | 37146 ft | 484 kts | 344° |
| 2026-05-03 22:26 | 30.06041 | -81.36953 | 37148 ft | 484 kts | 344° |
| 2026-05-03 22:26 | 30.12766 | -81.37355 | 37195 ft | 484 kts | 344° |
| 2026-05-03 22:27 | 30.19462 | -81.37757 | 37131 ft | 480 kts | 344° |
| 2026-05-03 22:27 | 30.26095 | -81.38154 | 37130 ft | 481 kts | 344° |
| 2026-05-03 22:28 | 30.32780 | -81.38558 | 37132 ft | 481 kts | 344° |
| 2026-05-03 22:28 | 30.39474 | -81.38961 | 37135 ft | 482 kts | 344° |
| 2026-05-03 22:29 | 30.46171 | -81.39361 | 37135 ft | 482 kts | 344° |
| 2026-05-03 22:29 | 30.52879 | -81.39741 | 37150 ft | 483 kts | 345° |
| 2026-05-03 22:30 | 30.59551 | -81.40074 | 37152 ft | 483 kts | 345° |
| 2026-05-03 22:30 | 30.66267 | -81.40412 | 37157 ft | 483 kts | 345° |
| 2026-05-03 22:31 | 30.72975 | -81.40768 | 37150 ft | 481 kts | 345° |
| 2026-05-03 22:31 | 30.79667 | -81.41127 | 37138 ft | 482 kts | 345° |
| 2026-05-03 22:32 | 30.86365 | -81.41494 | 37130 ft | 482 kts | 344° |
| 2026-05-03 22:32 | 30.93079 | -81.41859 | 37134 ft | 483 kts | 345° |
| 2026-05-03 22:33 | 30.99756 | -81.42210 | 37169 ft | 484 kts | 345° |
| 2026-05-03 22:33 | 31.06474 | -81.42564 | 37155 ft | 483 kts | 345° |
| 2026-05-03 22:34 | 31.13194 | -81.42914 | 37145 ft | 483 kts | 345° |
| 2026-05-03 22:34 | 31.19907 | -81.43272 | 37145 ft | 483 kts | 345° |
| 2026-05-03 22:35 | 31.26615 | -81.43625 | 37139 ft | 482 kts | 346° |
| 2026-05-03 22:35 | 31.33272 | -81.43763 | 37127 ft | 483 kts | 348° |
| 2026-05-03 22:36 | 31.39996 | -81.43766 | 37129 ft | 484 kts | 348° |
| 2026-05-03 22:36 | 31.46757 | -81.43561 | 37130 ft | 496 kts | 357° |
| 2026-05-03 22:36 | 31.50183 | -81.42731 | 37132 ft | 511 kts | 7° |
| 2026-05-03 22:37 | 31.53576 | -81.41388 | 37170 ft | 515 kts | 10° |
| 2026-05-03 22:37 | 31.60350 | -81.38605 | 37157 ft | 516 kts | 10° |
| 2026-05-03 22:38 | 31.67075 | -81.35828 | 37150 ft | 515 kts | 10° |
| 2026-05-03 22:38 | 31.73843 | -81.33040 | 37145 ft | 515 kts | 10° |
| 2026-05-03 22:39 | 31.80602 | -81.30252 | 37124 ft | 514 kts | 10° |
| 2026-05-03 22:39 | 31.87319 | -81.27472 | 37084 ft | 511 kts | 9° |
| 2026-05-03 22:40 | 31.94040 | -81.24743 | 37075 ft | 508 kts | 5° |
| 2026-05-03 22:40 | 31.97400 | -81.23865 | 37075 ft | 495 kts | 356° |
| 2026-05-03 22:40 | 32.00787 | -81.23517 | 37078 ft | 485 kts | 350° |
| 2026-05-03 22:41 | 32.07531 | -81.23198 | 37164 ft | 485 kts | 351° |
| 2026-05-03 22:41 | 32.14277 | -81.22871 | 37154 ft | 485 kts | 351° |
| 2026-05-03 22:42 | 32.21014 | -81.22528 | 37150 ft | 484 kts | 351° |
| 2026-05-03 22:42 | 32.27750 | -81.22194 | 37144 ft | 484 kts | 351° |
| 2026-05-03 22:43 | 32.34483 | -81.21853 | 37156 ft | 484 kts | 351° |
| 2026-05-03 22:43 | 32.41162 | -81.21518 | 37145 ft | 484 kts | 351° |
| 2026-05-03 22:44 | 32.47894 | -81.21149 | 37140 ft | 488 kts | 355° |
| 2026-05-03 22:44 | 32.54681 | -81.19738 | 37143 ft | 497 kts | 1° |
| 2026-05-03 22:45 | 32.61465 | -81.18159 | 37119 ft | 495 kts | 1° |
| 2026-05-03 22:45 | 32.68210 | -81.16589 | 37109 ft | 493 kts | 1° |
| 2026-05-03 22:46 | 32.74910 | -81.15048 | 37107 ft | 494 kts | 1° |
| 2026-05-03 22:46 | 32.81660 | -81.13499 | 37110 ft | 494 kts | 1° |
| 2026-05-03 22:47 | 32.88409 | -81.11937 | 37126 ft | 494 kts | 1° |
| 2026-05-03 22:47 | 32.95151 | -81.10375 | 37120 ft | 493 kts | 1° |
| 2026-05-03 22:48 | 33.01887 | -81.08813 | 37121 ft | 493 kts | 1° |
| 2026-05-03 22:48 | 33.08623 | -81.07245 | 37131 ft | 493 kts | 1° |
| 2026-05-03 22:49 | 33.15312 | -81.05681 | 37129 ft | 493 kts | 1° |
| 2026-05-03 22:49 | 33.22047 | -81.04112 | 37131 ft | 493 kts | 1° |
| 2026-05-03 22:50 | 33.28780 | -81.02544 | 37124 ft | 493 kts | 1° |
| 2026-05-03 22:50 | 33.35514 | -81.00971 | 37130 ft | 493 kts | 1° |
| 2026-05-03 22:51 | 33.42179 | -80.99408 | 37116 ft | 490 kts | 1° |
| 2026-05-03 22:51 | 33.48871 | -80.97833 | 37116 ft | 490 kts | 1° |
| 2026-05-03 22:52 | 33.55559 | -80.96261 | 37104 ft | 490 kts | 1° |
| 2026-05-03 22:52 | 33.62246 | -80.94686 | 37146 ft | 490 kts | 1° |
| 2026-05-03 22:53 | 33.68913 | -80.93114 | 37105 ft | 487 kts | 1° |
| 2026-05-03 22:53 | 33.75509 | -80.91552 | 37099 ft | 486 kts | 1° |
| 2026-05-03 22:54 | 33.82149 | -80.89981 | 37076 ft | 486 kts | 1° |
| 2026-05-03 22:54 | 33.88791 | -80.88488 | 37111 ft | 485 kts | 359° |
| 2026-05-03 22:55 | 33.95442 | -80.87307 | 37107 ft | 482 kts | 358° |
| 2026-05-03 22:55 | 34.02083 | -80.86226 | 37105 ft | 481 kts | 358° |
| 2026-05-03 22:56 | 34.08669 | -80.85083 | 37129 ft | 482 kts | 358° |
| 2026-05-03 22:56 | 34.15306 | -80.83866 | 37134 ft | 481 kts | 359° |
| 2026-05-03 22:57 | 34.21880 | -80.82641 | 37097 ft | 477 kts | 359° |
| 2026-05-03 22:57 | 34.28443 | -80.81451 | 37099 ft | 477 kts | 359° |
| 2026-05-03 22:58 | 34.35011 | -80.80276 | 37109 ft | 477 kts | 359° |
| 2026-05-03 22:58 | 34.41589 | -80.79092 | 37143 ft | 478 kts | 359° |
| 2026-05-03 22:59 | 34.48148 | -80.77896 | 37135 ft | 478 kts | 359° |
| 2026-05-03 22:59 | 34.54690 | -80.76696 | 37127 ft | 478 kts | 359° |
| 2026-05-03 23:00 | 34.61264 | -80.75491 | 37118 ft | 478 kts | 359° |
| 2026-05-03 23:00 | 34.67824 | -80.74291 | 37098 ft | 474 kts | 359° |
| 2026-05-03 23:01 | 34.74335 | -80.73094 | 37102 ft | 472 kts | 359° |
| 2026-05-03 23:01 | 34.80838 | -80.71908 | 37110 ft | 473 kts | 359° |
| 2026-05-03 23:02 | 34.87349 | -80.70719 | 37115 ft | 473 kts | 359° |
| 2026-05-03 23:02 | 34.93821 | -80.69530 | 37146 ft | 474 kts | 359° |
| 2026-05-03 23:03 | 35.00348 | -80.68320 | 37144 ft | 475 kts | 359° |
| 2026-05-03 23:03 | 35.06877 | -80.67112 | 37137 ft | 475 kts | 359° |
| 2026-05-03 23:04 | 35.13410 | -80.65905 | 37136 ft | 475 kts | 359° |
| 2026-05-03 23:04 | 35.19927 | -80.64701 | 37129 ft | 473 kts | 360° |
| 2026-05-03 23:05 | 35.26430 | -80.63497 | 37124 ft | 472 kts | 360° |
| 2026-05-03 23:05 | 35.32934 | -80.62293 | 37128 ft | 472 kts | 360° |
| 2026-05-03 23:06 | 35.39388 | -80.61094 | 37150 ft | 472 kts | 360° |
| 2026-05-03 23:06 | 35.45876 | -80.59885 | 37111 ft | 471 kts | 360° |
| 2026-05-03 23:07 | 35.52360 | -80.58676 | 37103 ft | 471 kts | 360° |
| 2026-05-03 23:07 | 35.58844 | -80.57463 | 37101 ft | 471 kts | 360° |
| 2026-05-03 23:08 | 35.65328 | -80.56246 | 37098 ft | 471 kts | 360° |
| 2026-05-03 23:08 | 35.71769 | -80.55035 | 37097 ft | 471 kts | 360° |
| 2026-05-03 23:09 | 35.78253 | -80.53814 | 37100 ft | 471 kts | 360° |
| 2026-05-03 23:09 | 35.84736 | -80.52590 | 37099 ft | 471 kts | 359° |
| 2026-05-03 23:10 | 35.91224 | -80.51371 | 37111 ft | 471 kts | 359° |
| 2026-05-03 23:10 | 35.97657 | -80.50158 | 37094 ft | 471 kts | 359° |
| 2026-05-03 23:11 | 36.04131 | -80.48933 | 37092 ft | 471 kts | 359° |
| 2026-05-03 23:11 | 36.10604 | -80.47704 | 37086 ft | 470 kts | 359° |
| 2026-05-03 23:12 | 36.17053 | -80.46483 | 37056 ft | 465 kts | 359° |
| 2026-05-03 23:12 | 36.23429 | -80.45271 | 37064 ft | 463 kts | 359° |
| 2026-05-03 23:13 | 36.29805 | -80.44061 | 37078 ft | 464 kts | 359° |
| 2026-05-03 23:13 | 36.36144 | -80.42851 | 37085 ft | 464 kts | 359° |
| 2026-05-03 23:14 | 36.42534 | -80.41631 | 37113 ft | 464 kts | 359° |
| 2026-05-03 23:14 | 36.48910 | -80.40354 | 37107 ft | 464 kts | 360° |
| 2026-05-03 23:15 | 36.55278 | -80.39026 | 37102 ft | 464 kts | 0° |
| 2026-05-03 23:15 | 36.61605 | -80.37719 | 37114 ft | 464 kts | 360° |
| 2026-05-03 23:16 | 36.67959 | -80.36426 | 37080 ft | 462 kts | 360° |
| 2026-05-03 23:16 | 36.74313 | -80.35138 | 37082 ft | 462 kts | 359° |
| 2026-05-03 23:17 | 36.80657 | -80.34104 | 37091 ft | 459 kts | 356° |
| 2026-05-03 23:17 | 36.86964 | -80.33298 | 37120 ft | 458 kts | 356° |
| 2026-05-03 23:18 | 36.93315 | -80.32479 | 37109 ft | 459 kts | 356° |
| 2026-05-03 23:18 | 36.99673 | -80.31583 | 37108 ft | 460 kts | 357° |
| 2026-05-03 23:19 | 37.06037 | -80.30653 | 37107 ft | 460 kts | 357° |
| 2026-05-03 23:19 | 37.12394 | -80.29738 | 37098 ft | 459 kts | 357° |
| 2026-05-03 23:20 | 37.18694 | -80.28840 | 37096 ft | 459 kts | 357° |
| 2026-05-03 23:20 | 37.25043 | -80.27937 | 37093 ft | 459 kts | 357° |
| 2026-05-03 23:21 | 37.31393 | -80.27023 | 37078 ft | 460 kts | 357° |
| 2026-05-03 23:21 | 37.37749 | -80.26099 | 37095 ft | 460 kts | 357° |
| 2026-05-03 23:22 | 37.47239 | -80.24730 | 37087 ft | 460 kts | 357° |
| 2026-05-03 23:22 | 37.53599 | -80.23817 | 37086 ft | 460 kts | 357° |
| 2026-05-03 23:23 | 37.59952 | -80.22894 | 37081 ft | 459 kts | 357° |
| 2026-05-03 23:23 | 37.66281 | -80.21984 | 37084 ft | 458 kts | 357° |
| 2026-05-03 23:24 | 37.72618 | -80.21050 | 37084 ft | 458 kts | 357° |
| 2026-05-03 23:24 | 37.78903 | -80.20100 | 37128 ft | 458 kts | 357° |
| 2026-05-03 23:25 | 37.85223 | -80.19150 | 37092 ft | 456 kts | 357° |
| 2026-05-03 23:25 | 37.91534 | -80.18199 | 37090 ft | 456 kts | 357° |
| 2026-05-03 23:26 | 37.97840 | -80.17250 | 37103 ft | 456 kts | 357° |
| 2026-05-03 23:26 | 38.04103 | -80.16314 | 37098 ft | 456 kts | 357° |
| 2026-05-03 23:27 | 38.10413 | -80.15363 | 37090 ft | 457 kts | 357° |
| 2026-05-03 23:27 | 38.16731 | -80.14413 | 37086 ft | 457 kts | 357° |
| 2026-05-03 23:28 | 38.23050 | -80.13465 | 37088 ft | 458 kts | 357° |
| 2026-05-03 23:28 | 38.29332 | -80.12525 | 37119 ft | 457 kts | 357° |
| 2026-05-03 23:29 | 38.35648 | -80.11581 | 37115 ft | 457 kts | 357° |
| 2026-05-03 23:29 | 38.41946 | -80.10930 | 37111 ft | 451 kts | 353° |
| 2026-05-03 23:30 | 38.48205 | -80.10675 | 37158 ft | 449 kts | 352° |
| 2026-05-03 23:30 | 38.54443 | -80.10454 | 37093 ft | 448 kts | 352° |
| 2026-05-03 23:31 | 38.60643 | -80.10141 | 37091 ft | 449 kts | 353° |
| 2026-05-03 23:31 | 38.66886 | -80.09786 | 37092 ft | 449 kts | 353° |
| 2026-05-03 23:32 | 38.73135 | -80.09435 | 37106 ft | 449 kts | 353° |
| 2026-05-03 23:32 | 38.79385 | -80.09092 | 37091 ft | 449 kts | 353° |
| 2026-05-03 23:33 | 38.85592 | -80.08751 | 37084 ft | 449 kts | 353° |
| 2026-05-03 23:33 | 38.91853 | -80.07975 | 37074 ft | 463 kts | 5° |
| 2026-05-03 23:34 | 38.94951 | -80.06652 | 37092 ft | 476 kts | 15° |
| 2026-05-03 23:34 | 38.97948 | -80.04835 | 37074 ft | 477 kts | 17° |
| 2026-05-03 23:34 | 39.03909 | -80.01183 | 37073 ft | 477 kts | 17° |
| 2026-05-03 23:35 | 39.09904 | -79.97526 | 37068 ft | 477 kts | 17° |
| 2026-05-03 23:35 | 39.12916 | -79.95690 | 36967 ft | 478 kts | 17° |
| 2026-05-03 23:35 | 39.15913 | -79.93858 | 36731 ft | 477 kts | 17° |
| 2026-05-03 23:36 | 39.18904 | -79.92028 | 36449 ft | 475 kts | 17° |
| 2026-05-03 23:36 | 39.21903 | -79.90191 | 35667 ft | 479 kts | 17° |
| 2026-05-03 23:36 | 39.24925 | -79.88343 | 34835 ft | 483 kts | 16° |
| 2026-05-03 23:36 | 39.27959 | -79.86488 | 34298 ft | 481 kts | 16° |
| 2026-05-03 23:37 | 39.30979 | -79.84634 | 33566 ft | 480 kts | 16° |
| 2026-05-03 23:37 | 39.33956 | -79.82803 | 32727 ft | 481 kts | 16° |
| 2026-05-03 23:37 | 39.36977 | -79.80940 | 31929 ft | 481 kts | 17° |
| 2026-05-03 23:37 | 39.39991 | -79.79076 | 31130 ft | 481 kts | 17° |
| 2026-05-03 23:38 | 39.43009 | -79.77207 | 30288 ft | 480 kts | 17° |
| 2026-05-03 23:38 | 39.46026 | -79.75339 | 29265 ft | 481 kts | 17° |
| 2026-05-03 23:38 | 39.49054 | -79.73469 | 28137 ft | 483 kts | 17° |
| 2026-05-03 23:38 | 39.52086 | -79.71598 | 27179 ft | 482 kts | 18° |
| 2026-05-03 23:39 | 39.55115 | -79.69725 | 26201 ft | 481 kts | 18° |
| 2026-05-03 23:39 | 39.58081 | -79.67884 | 25393 ft | 478 kts | 18° |
| 2026-05-03 23:39 | 39.61066 | -79.66028 | 24593 ft | 473 kts | 19° |
| 2026-05-03 23:39 | 39.64022 | -79.64192 | 23793 ft | 469 kts | 19° |
| 2026-05-03 23:40 | 39.66952 | -79.62370 | 22892 ft | 465 kts | 19° |
| 2026-05-03 23:40 | 39.69852 | -79.60565 | 22060 ft | 459 kts | 19° |
| 2026-05-03 23:40 | 39.72712 | -79.58785 | 21282 ft | 453 kts | 20° |
| 2026-05-03 23:40 | 39.75539 | -79.57025 | 20511 ft | 447 kts | 20° |
| 2026-05-03 23:41 | 39.78322 | -79.55289 | 19796 ft | 442 kts | 20° |
| 2026-05-03 23:41 | 39.81077 | -79.53567 | 19071 ft | 436 kts | 20° |
| 2026-05-03 23:41 | 39.83754 | -79.51891 | 18348 ft | 431 kts | 21° |
| 2026-05-03 23:41 | 39.86442 | -79.50206 | 17508 ft | 427 kts | 21° |
| 2026-05-03 23:42 | 39.89100 | -79.48539 | 16789 ft | 421 kts | 21° |
| 2026-05-03 23:42 | 39.91717 | -79.46897 | 16154 ft | 414 kts | 21° |
| 2026-05-03 23:42 | 39.94311 | -79.45319 | 15522 ft | 407 kts | 17° |
| 2026-05-03 23:42 | 39.97013 | -79.44497 | 14902 ft | 394 kts | 0° |
| 2026-05-03 23:43 | 39.99696 | -79.44691 | 14292 ft | 381 kts | 345° |
| 2026-05-03 23:43 | 40.02165 | -79.45792 | 13623 ft | 371 kts | 330° |
| 2026-05-03 23:43 | 40.04239 | -79.47633 | 12959 ft | 362 kts | 315° |
| 2026-05-03 23:43 | 40.05922 | -79.50023 | 12330 ft | 355 kts | 308° |
| 2026-05-03 23:44 | 40.07509 | -79.52464 | 11712 ft | 350 kts | 308° |
| 2026-05-03 23:44 | 40.09080 | -79.54878 | 11082 ft | 347 kts | 309° |
| 2026-05-03 23:44 | 40.10621 | -79.57247 | 10779 ft | 335 kts | 309° |
| 2026-05-03 23:44 | 40.12097 | -79.59510 | 10658 ft | 319 kts | 309° |
| 2026-05-03 23:45 | 40.13503 | -79.61679 | 10532 ft | 306 kts | 308° |
| 2026-05-03 23:45 | 40.14825 | -79.63789 | 10407 ft | 294 kts | 307° |
| 2026-05-03 23:45 | 40.16062 | -79.65804 | 10290 ft | 283 kts | 307° |
| 2026-05-03 23:45 | 40.17273 | -79.67791 | 10109 ft | 276 kts | 307° |
| 2026-05-03 23:46 | 40.18458 | -79.69737 | 10040 ft | 274 kts | 307° |
| 2026-05-03 23:46 | 40.19559 | -79.71760 | 9963 ft | 273 kts | 297° |
| 2026-05-03 23:46 | 40.20359 | -79.74016 | 9585 ft | 273 kts | 292° |
| 2026-05-03 23:46 | 40.21120 | -79.76277 | 9247 ft | 271 kts | 292° |
| 2026-05-03 23:47 | 40.21882 | -79.78531 | 8896 ft | 269 kts | 292° |
| 2026-05-03 23:47 | 40.22636 | -79.80761 | 8553 ft | 268 kts | 292° |
| 2026-05-03 23:47 | 40.23390 | -79.82987 | 8209 ft | 266 kts | 292° |
| 2026-05-03 23:47 | 40.24128 | -79.85169 | 7889 ft | 265 kts | 291° |
| 2026-05-03 23:48 | 40.24871 | -79.87366 | 7559 ft | 264 kts | 291° |
| 2026-05-03 23:48 | 40.25614 | -79.89564 | 7230 ft | 263 kts | 291° |
| 2026-05-03 23:48 | 40.26351 | -79.91748 | 6901 ft | 262 kts | 291° |
| 2026-05-03 23:48 | 40.27090 | -79.93923 | 6570 ft | 261 kts | 293° |
| 2026-05-03 23:49 | 40.28156 | -79.95856 | 6231 ft | 265 kts | 311° |
| 2026-05-03 23:49 | 40.29490 | -79.97508 | 5896 ft | 264 kts | 313° |
| 2026-05-03 23:49 | 40.30822 | -79.99154 | 5566 ft | 262 kts | 312° |
| 2026-05-03 23:49 | 40.32130 | -80.00773 | 5387 ft | 255 kts | 312° |
| 2026-05-03 23:50 | 40.33415 | -80.02364 | 5102 ft | 254 kts | 313° |
| 2026-05-03 23:50 | 40.34265 | -80.03418 | 4884 ft | 254 kts | 313° |
| 2026-05-03 23:50 | 40.35959 | -80.05518 | 4419 ft | 250 kts | 312° |
| 2026-05-03 23:50 | 40.37194 | -80.07046 | 4090 ft | 240 kts | 312° |
| 2026-05-03 23:51 | 40.38384 | -80.08522 | 3782 ft | 230 kts | 311° |
| 2026-05-03 23:51 | 40.39518 | -80.09931 | 3471 ft | 220 kts | 311° |
| 2026-05-03 23:51 | 40.40604 | -80.11280 | 3181 ft | 210 kts | 311° |
| 2026-05-03 23:51 | 40.41629 | -80.12551 | 2895 ft | 196 kts | 310° |
| 2026-05-03 23:52 | 40.42589 | -80.13745 | 2662 ft | 183 kts | 311° |
| 2026-05-03 23:52 | 40.43473 | -80.14841 | 2430 ft | 162 kts | 309° |
| 2026-05-03 23:52 | 40.44237 | -80.15790 | 2196 ft | 144 kts | 309° |
| 2026-05-03 23:52 | 40.44939 | -80.16667 | 2001 ft | 139 kts | 309° |
| 2026-05-03 23:53 | 40.45634 | -80.17535 | 1798 ft | 137 kts | 311° |
| 2026-05-03 23:53 | 40.46327 | -80.18402 | 1618 ft | 137 kts | 311° |
| 2026-05-03 23:53 | 40.47017 | -80.19258 | 1435 ft | 137 kts | 311° |
| 2026-05-03 23:53 | 40.47711 | -80.20113 | 1282 ft | 136 kts | 309° |
| 2026-05-03 23:54 | 40.48375 | -80.20956 | 1154 ft | 124 kts | 312° |
| 2026-05-03 23:54 | 40.48893 | -80.21605 | 1146 ft | 79 kts | 317° |
| 2026-05-03 23:54 | 40.49136 | -80.21912 | 1151 ft | 24 kts | 304° |
| 2026-05-03 23:54 | 40.49170 | -80.22089 | 1153 ft | 19 kts | 259° |
| 2026-05-03 23:55 | 40.49097 | -80.22232 | 1154 ft | 20 kts | 226° |
| 2026-05-03 23:55 | 40.49024 | -80.22390 | 1153 ft | 22 kts | 268° |
| 2026-05-03 23:55 | 40.49031 | -80.22599 | 1153 ft | 24 kts | 272° |
| 2026-05-03 23:55 | 40.49036 | -80.22826 | 1153 ft | 26 kts | 273° |
| 2026-05-03 23:56 | 40.49042 | -80.23068 | 1154 ft | 27 kts | 272° |
| 2026-05-03 23:56 | 40.49049 | -80.23324 | 1153 ft | 29 kts | 271° |
| 2026-05-03 23:56 | 40.49053 | -80.23587 | 1154 ft | 28 kts | 271° |
| 2026-05-03 23:56 | 40.49063 | -80.23811 | 1153 ft | 19 kts | 275° |
| 2026-05-03 23:57 | 40.49123 | -80.23905 | 1155 ft | 15 kts | 2° |
| 2026-05-03 23:57 | 40.49231 | -80.23905 | 1151 ft | 19 kts | 359° |
| 2026-05-03 23:57 | 40.49361 | -80.23898 | 1154 ft | 18 kts | 4° |
| 2026-05-03 23:57 | 40.49420 | -80.23928 | 1157 ft | 5 kts | 293° |
| 2026-05-03 23:58 | 40.49421 | -80.23985 | 1157 ft | 8 kts | 260° |
| 2026-05-03 23:58 | 40.49412 | -80.24074 | 1157 ft | 11 kts | 268° |
| 2026-05-03 23:58 | 40.49412 | -80.24184 | 1156 ft | 13 kts | 271° |
| 2026-05-03 23:58 | 40.49444 | -80.24293 | 1158 ft | 13 kts | 312° |
| 2026-05-03 23:59 | 40.49484 | -80.24356 | 1160 ft | 5 kts | 279° |
| 2026-05-03 23:59 | 40.49459 | -80.24403 | 1158 ft | 6 kts | 222° |
| 2026-05-03 23:59 | 40.49458 | -80.24405 | 1158 ft | 0 kts | 223° |